Clemente Onelli, Argentina
Current Conditions -  °F | °C
As of 12:00 PM on Friday 31 Oct 2014 (Local Time) from SAZS Reporting Station
Scattered Clouds Scattered Clouds  
Wind Chill: 37°   Ceiling: Unl
Heat Index: 45°   Visibility: 6mi
Dew Point: 27°   Wind: 16mph
Humidity: 49%   Direction: 320°NW
Pressure: 30.12"   Gusts: NA
Location:  41.13°S, 70.58°W
Report Text: SAZS 311500Z 32014KT 9999 SCT035 SCT04007/M03 Q1020
Loading
Personal Weather Stations






























Interactive Weather Map
Tropical Storm Tracking
New forecast layout! Learn more

10-Day Weather Forecast

Advertisements
Track Severe Weather on mobile